createdAt,value
2018-11-12T00:00:40.189Z,14.51
2018-11-12T00:01:40.177Z,14.46
2018-11-12T00:02:40.170Z,14.45
2018-11-12T00:03:40.170Z,14.36
2018-11-12T00:04:40.144Z,14.42
2018-11-12T00:05:40.184Z,14.45
2018-11-12T00:06:40.127Z,14.40
2018-11-12T00:07:40.136Z,14.42
2018-11-12T00:08:40.133Z,14.40
2018-11-12T00:09:40.135Z,14.37
2018-11-12T00:10:40.104Z,14.37
2018-11-12T00:11:40.071Z,14.35
2018-11-12T00:12:40.056Z,14.33
2018-11-12T00:13:40.055Z,14.36
2018-11-12T00:14:40.041Z,14.28
2018-11-12T00:15:40.031Z,14.32
2018-11-12T00:16:40.055Z,14.37
2018-11-12T00:17:40.025Z,14.43
2018-11-12T00:18:39.991Z,14.29
2018-11-12T00:19:40.008Z,14.32
2018-11-12T00:20:39.975Z,14.22
2018-11-12T00:21:39.983Z,14.27
2018-11-12T00:22:40.004Z,14.39
2018-11-12T00:23:39.932Z,14.24
2018-11-12T00:24:39.948Z,14.27
2018-11-12T00:25:39.918Z,14.21
2018-11-12T00:26:39.900Z,14.27
2018-11-12T00:27:39.910Z,14.24
2018-11-12T00:28:39.921Z,14.29
2018-11-12T00:29:39.876Z,14.24
2018-11-12T00:30:39.856Z,14.24
2018-11-12T00:31:39.895Z,14.32
2018-11-12T00:32:39.843Z,14.21
2018-11-12T00:33:39.858Z,14.21
2018-11-12T00:34:39.894Z,14.24
2018-11-12T00:35:39.804Z,14.25
2018-11-12T00:36:39.793Z,14.24
2018-11-12T00:37:39.801Z,14.25
2018-11-12T00:38:39.777Z,14.29
2018-11-12T00:39:39.783Z,14.27
2018-11-12T00:40:39.745Z,14.25
2018-11-12T00:41:39.780Z,14.29
2018-11-12T00:42:39.725Z,14.20
2018-11-12T00:43:39.745Z,14.29
2018-11-12T00:44:39.723Z,14.28
2018-11-12T00:45:39.730Z,14.27
2018-11-12T00:46:39.677Z,14.25
2018-11-12T00:47:39.667Z,14.29
2018-11-12T00:48:39.764Z,14.33
2018-11-12T00:49:39.655Z,14.24
2018-11-12T00:50:39.631Z,14.28
2018-11-12T00:51:39.636Z,14.20
2018-11-12T00:52:39.641Z,14.28
2018-11-12T00:53:39.607Z,14.21
2018-11-12T00:54:39.623Z,14.27
2018-11-12T00:55:39.601Z,14.18
2018-11-12T00:56:39.592Z,14.18
2018-11-12T00:57:39.554Z,14.28
2018-11-12T00:58:39.546Z,14.20
2018-11-12T00:59:39.545Z,14.25
2018-11-12T01:00:39.539Z,14.28
2018-11-12T01:01:39.526Z,14.25
2018-11-12T01:02:39.501Z,14.33
2018-11-12T01:03:39.488Z,14.24
2018-11-12T01:04:39.498Z,14.29
2018-11-12T01:05:39.493Z,14.21
2018-11-12T01:06:39.490Z,14.22
2018-11-12T01:07:39.475Z,14.20
2018-11-12T01:08:39.433Z,14.22
2018-11-12T01:09:39.435Z,14.21
2018-11-12T01:10:39.446Z,14.22
2018-11-12T01:11:39.421Z,14.14
2018-11-12T01:12:39.395Z,14.20
2018-11-12T01:13:39.405Z,14.20
2018-11-12T01:14:39.368Z,14.21
2018-11-12T01:15:39.366Z,14.09
2018-11-12T01:16:39.350Z,14.22
2018-11-12T01:17:39.352Z,14.24
2018-11-12T01:18:39.339Z,14.22
2018-11-12T01:19:39.314Z,14.25
2018-11-12T01:20:39.313Z,14.20
2018-11-12T01:21:39.298Z,14.21
2018-11-12T01:22:39.304Z,14.27
2018-11-12T01:23:39.314Z,14.18
2018-11-12T01:24:39.279Z,14.28
2018-11-12T01:25:39.272Z,14.22
2018-11-12T01:26:39.239Z,14.18
2018-11-12T01:27:39.220Z,14.18
2018-11-12T01:28:39.222Z,14.20
2018-11-12T01:29:39.205Z,14.18
2018-11-12T01:30:39.230Z,14.24
2018-11-12T01:31:39.236Z,14.22
2018-11-12T01:32:39.169Z,14.20
2018-11-12T01:33:39.161Z,14.18
2018-11-12T01:34:39.154Z,14.22
2018-11-12T01:35:39.163Z,14.18
2018-11-12T01:36:39.139Z,14.21
2018-11-12T01:37:39.783Z,14.24
2018-11-12T01:38:39.101Z,14.20
2018-11-12T01:39:39.133Z,14.21
2018-11-12T01:40:39.088Z,14.15
2018-11-12T01:41:39.072Z,14.22
2018-11-12T01:42:39.060Z,14.14
2018-11-12T01:43:39.042Z,14.10
2018-11-12T01:44:39.039Z,14.22
2018-11-12T01:45:39.038Z,14.14
2018-11-12T01:46:39.043Z,14.09
2018-11-12T01:47:39.060Z,14.07
2018-11-12T01:48:38.990Z,14.14
2018-11-12T01:49:39.004Z,14.10
2018-11-12T01:50:38.999Z,14.10
2018-11-12T01:51:38.966Z,14.12
2018-11-12T01:52:38.966Z,14.07
2018-11-12T01:53:38.941Z,14.14
2018-11-12T01:54:38.921Z,14.07
2018-11-12T01:55:38.992Z,14.07
2018-11-12T01:56:38.905Z,14.12
2018-11-12T01:57:38.903Z,14.10
2018-11-12T01:58:38.890Z,14.12
2018-11-12T01:59:38.865Z,14.04
2018-11-12T02:00:38.901Z,14.07
2018-11-12T02:01:38.866Z,14.09
2018-11-12T02:02:38.937Z,14.09
2018-11-12T02:03:38.839Z,14.12
2018-11-12T02:04:38.877Z,14.14
2018-11-12T02:05:38.832Z,14.10
2018-11-12T02:06:38.788Z,14.14
2018-11-12T02:07:38.870Z,14.14
2018-11-12T02:08:38.882Z,14.07
2018-11-12T02:09:38.787Z,14.14
2018-11-12T02:10:38.793Z,14.06
2018-11-12T02:11:38.732Z,14.10
2018-11-12T02:12:38.734Z,14.09
2018-11-12T02:13:38.721Z,14.09
2018-11-12T02:14:38.770Z,14.09
2018-11-12T02:15:38.705Z,14.00
2018-11-12T02:16:38.689Z,13.97
2018-11-12T02:17:38.690Z,13.97
2018-11-12T02:18:38.696Z,13.99
2018-11-12T02:19:38.652Z,14.02
2018-11-12T02:20:38.659Z,14.03
2018-11-12T02:21:38.654Z,13.96
2018-11-12T02:22:38.660Z,13.97
2018-11-12T02:23:38.605Z,14.06
2018-11-12T02:24:38.604Z,13.99
2018-11-12T02:25:38.606Z,14.00
2018-11-12T02:26:38.577Z,14.09
2018-11-12T02:27:38.564Z,14.06
2018-11-12T02:28:38.567Z,13.97
2018-11-12T02:29:38.545Z,14.00
2018-11-12T02:30:38.548Z,14.09
2018-11-12T02:31:38.512Z,14.04
2018-11-12T02:32:38.504Z,14.04
2018-11-12T02:33:38.492Z,14.09
2018-11-12T02:34:38.482Z,14.04
2018-11-12T02:35:38.491Z,14.10
2018-11-12T02:36:38.471Z,14.22
2018-11-12T02:37:38.467Z,14.21
2018-11-12T02:38:38.452Z,14.18
2018-11-12T02:39:38.454Z,14.21
2018-11-12T02:40:38.437Z,14.24
2018-11-12T02:41:38.402Z,14.21
2018-11-12T02:42:38.412Z,14.29
2018-11-12T02:43:38.379Z,14.40
2018-11-12T02:44:38.371Z,14.42
2018-11-12T02:45:38.398Z,14.37
2018-11-12T02:46:38.357Z,14.37
2018-11-12T02:47:38.350Z,14.39
2018-11-12T02:48:38.344Z,14.47
2018-11-12T02:49:38.317Z,14.43
2018-11-12T02:50:38.299Z,14.54
2018-11-12T02:51:38.302Z,14.47
2018-11-12T02:52:38.278Z,14.52
2018-11-12T02:53:38.272Z,14.54
2018-11-12T02:54:38.280Z,14.58
2018-11-12T02:55:38.286Z,14.62
2018-11-12T02:56:38.258Z,14.52
2018-11-12T02:57:38.415Z,14.52
2018-11-12T02:58:38.215Z,14.64
2018-11-12T02:59:38.229Z,14.69
2018-11-12T03:00:38.215Z,14.69
2018-11-12T03:01:38.209Z,14.62
2018-11-12T03:02:38.184Z,14.69
2018-11-12T03:03:38.156Z,14.65
2018-11-12T03:04:38.158Z,14.70
2018-11-12T03:05:38.153Z,14.78
2018-11-12T03:06:38.159Z,14.78
2018-11-12T03:07:38.269Z,14.77
2018-11-12T03:08:38.104Z,14.73
2018-11-12T03:09:38.087Z,14.86
2018-11-12T03:10:38.085Z,14.84
2018-11-12T03:11:38.092Z,14.84
2018-11-12T03:12:38.068Z,14.80
2018-11-12T03:13:38.065Z,14.77
2018-11-12T03:14:38.032Z,14.89
2018-11-12T03:15:38.032Z,14.84
2018-11-12T03:16:38.034Z,14.81
2018-11-12T03:17:38.032Z,14.84
2018-11-12T03:18:37.990Z,14.84
2018-11-12T03:19:37.979Z,14.80
2018-11-12T03:20:37.980Z,14.86
2018-11-12T03:21:37.974Z,14.80
2018-11-12T03:22:37.957Z,14.86
2018-11-12T03:23:37.949Z,14.88
2018-11-12T03:24:37.965Z,14.78
2018-11-12T03:25:37.914Z,14.86
2018-11-12T03:26:37.917Z,14.88
2018-11-12T03:27:37.989Z,14.78
2018-11-12T03:28:37.875Z,14.81
2018-11-12T03:29:37.870Z,14.73
2018-11-12T03:30:37.860Z,14.77
2018-11-12T03:31:37.855Z,14.77
2018-11-12T03:32:37.834Z,14.75
2018-11-12T03:33:37.822Z,14.70
2018-11-12T03:34:37.815Z,14.77
2018-11-12T03:35:37.802Z,14.83
2018-11-12T03:36:37.798Z,14.88
2018-11-12T03:37:37.780Z,14.78
2018-11-12T03:38:37.771Z,14.84
2018-11-12T03:39:37.764Z,14.84
2018-11-12T03:40:37.752Z,14.77
2018-11-12T03:41:37.751Z,14.77
2018-11-12T03:42:37.723Z,14.68
2018-11-12T03:43:37.718Z,14.75
2018-11-12T03:44:37.699Z,14.73
2018-11-12T03:45:37.693Z,14.83
2018-11-12T03:46:37.682Z,14.65
2018-11-12T03:47:37.677Z,14.77
2018-11-12T03:48:37.660Z,14.72
2018-11-12T03:49:37.647Z,14.75
2018-11-12T03:50:37.632Z,14.68
2018-11-12T03:51:37.643Z,14.73
2018-11-12T03:52:37.620Z,14.75
2018-11-12T03:53:37.609Z,14.80
2018-11-12T03:54:37.590Z,14.75
2018-11-12T03:55:37.583Z,14.77
2018-11-12T03:56:37.567Z,14.78
2018-11-12T03:57:37.572Z,14.84
2018-11-12T03:58:37.547Z,14.84
2018-11-12T03:59:37.532Z,14.80
2018-11-12T04:00:37.529Z,14.84
2018-11-12T04:01:37.510Z,14.81
2018-11-12T04:02:37.511Z,14.83
2018-11-12T04:03:37.490Z,14.89
2018-11-12T04:04:37.477Z,14.98
2018-11-12T04:05:37.476Z,14.88
2018-11-12T04:06:37.467Z,14.83
2018-11-12T04:07:37.454Z,14.89
2018-11-12T04:08:37.431Z,14.83
2018-11-12T04:09:37.425Z,14.80
2018-11-12T04:10:37.413Z,14.83
2018-11-12T04:11:37.401Z,14.88
2018-11-12T04:12:37.407Z,14.96
2018-11-12T04:13:37.380Z,14.95
2018-11-12T04:14:37.372Z,14.98
2018-11-12T04:15:37.366Z,14.95
2018-11-12T04:16:37.348Z,15.01
2018-11-12T04:17:37.346Z,15.02
2018-11-12T04:18:37.320Z,15.02
2018-11-12T04:19:37.309Z,15.13
2018-11-12T04:20:37.301Z,15.06
2018-11-12T04:21:37.317Z,15.02
2018-11-12T04:22:37.397Z,15.10
2018-11-12T04:23:37.285Z,15.09
2018-11-12T04:24:37.257Z,15.13
2018-11-12T04:25:37.268Z,15.06
2018-11-12T04:26:37.244Z,15.10
2018-11-12T04:27:37.227Z,15.11
2018-11-12T04:28:37.241Z,15.11
2018-11-12T04:29:37.213Z,15.10
2018-11-12T04:30:37.195Z,15.10
2018-11-12T04:31:37.177Z,15.10
2018-11-12T04:32:37.168Z,15.09
2018-11-12T04:33:37.167Z,15.17
2018-11-12T04:34:37.144Z,15.20
2018-11-12T04:35:37.132Z,15.16
2018-11-12T04:36:37.121Z,15.23
2018-11-12T04:37:37.109Z,15.16
2018-11-12T04:38:37.122Z,15.20
2018-11-12T04:39:37.088Z,15.16
2018-11-12T04:40:37.084Z,15.17
2018-11-12T04:41:37.066Z,15.17
2018-11-12T04:42:37.056Z,15.20
2018-11-12T04:43:37.052Z,15.14
2018-11-12T04:44:37.032Z,15.17
2018-11-12T04:45:37.100Z,15.16
2018-11-12T04:46:37.014Z,15.17
2018-11-12T04:47:36.998Z,15.14
2018-11-12T04:48:36.998Z,15.17
2018-11-12T04:49:36.977Z,15.23
2018-11-12T04:50:36.965Z,15.25
2018-11-12T04:51:36.960Z,15.20
2018-11-12T04:52:36.945Z,15.31
2018-11-12T04:53:37.057Z,15.34
2018-11-12T04:54:36.922Z,15.29
2018-11-12T04:55:36.918Z,15.29
2018-11-12T04:56:36.902Z,15.28
2018-11-12T04:57:36.902Z,15.23
2018-11-12T04:58:36.889Z,15.32
2018-11-12T04:59:36.869Z,15.23
2018-11-12T05:00:36.855Z,15.29
2018-11-12T05:01:36.852Z,15.27
2018-11-12T05:02:36.851Z,15.31
2018-11-12T05:03:36.841Z,15.32
2018-11-12T05:04:36.810Z,15.32
2018-11-12T05:05:36.797Z,15.32
2018-11-12T05:06:36.787Z,15.36
2018-11-12T05:07:36.825Z,15.29
2018-11-12T05:08:36.775Z,15.35
2018-11-12T05:09:36.758Z,15.32
2018-11-12T05:10:36.746Z,15.38
2018-11-12T05:11:36.730Z,15.39
2018-11-12T05:12:36.723Z,15.36
2018-11-12T05:13:36.721Z,15.32
2018-11-12T05:14:36.700Z,15.34
2018-11-12T05:15:36.688Z,15.31
2018-11-12T05:16:36.733Z,15.34
2018-11-12T05:17:36.663Z,15.41
2018-11-12T05:18:36.665Z,15.39
2018-11-12T05:19:36.645Z,15.39
2018-11-12T05:20:36.640Z,15.32
2018-11-12T05:21:36.627Z,15.35
2018-11-12T05:22:36.608Z,15.35
2018-11-12T05:23:36.612Z,15.32
2018-11-12T05:24:36.596Z,15.36
2018-11-12T05:25:36.578Z,15.29
2018-11-12T05:26:36.563Z,15.29
2018-11-12T05:27:36.553Z,15.27
2018-11-12T05:28:36.553Z,15.32
2018-11-12T05:29:36.536Z,15.32
2018-11-12T05:30:36.539Z,15.31
2018-11-12T05:31:36.512Z,15.27
2018-11-12T05:32:36.498Z,15.32
2018-11-12T05:33:36.498Z,15.29
2018-11-12T05:34:36.477Z,15.29
2018-11-12T05:35:36.473Z,15.31
2018-11-12T05:36:36.455Z,15.29
2018-11-12T05:37:36.494Z,15.29
2018-11-12T05:38:36.467Z,15.34
2018-11-12T05:39:36.420Z,15.28
2018-11-12T05:40:36.413Z,15.29
2018-11-12T05:41:36.402Z,15.27
2018-11-12T05:42:36.408Z,15.31
2018-11-12T05:43:36.378Z,15.29
2018-11-12T05:44:36.373Z,15.29
2018-11-12T05:45:36.352Z,15.27
2018-11-12T05:46:36.344Z,15.28
2018-11-12T05:47:36.337Z,15.23
2018-11-12T05:48:36.320Z,15.23
2018-11-12T05:49:36.332Z,15.23
2018-11-12T05:50:36.314Z,15.21
2018-11-12T05:51:36.360Z,15.16
2018-11-12T05:52:36.282Z,15.23
2018-11-12T05:53:36.283Z,15.23
2018-11-12T05:54:36.263Z,15.27
2018-11-12T05:55:36.245Z,15.11
2018-11-12T05:56:36.231Z,15.16
2018-11-12T05:57:36.226Z,15.11
2018-11-12T05:58:36.209Z,15.14
2018-11-12T05:59:36.217Z,15.20
2018-11-12T06:00:36.189Z,15.17
2018-11-12T06:01:36.179Z,15.14
2018-11-12T06:02:36.164Z,15.13
2018-11-12T06:03:36.153Z,15.17
2018-11-12T06:04:36.204Z,15.17
2018-11-12T06:05:36.131Z,15.20
2018-11-12T06:06:36.122Z,15.13
2018-11-12T06:07:36.120Z,15.23
2018-11-12T06:08:36.099Z,15.21
2018-11-12T06:09:36.087Z,15.27
2018-11-12T06:10:36.090Z,15.25
2018-11-12T06:11:36.079Z,15.21
2018-11-12T06:12:36.059Z,15.27
2018-11-12T06:13:36.043Z,15.20
2018-11-12T06:14:36.032Z,15.16
2018-11-12T06:15:36.031Z,15.16
2018-11-12T06:16:36.010Z,15.17
2018-11-12T06:17:35.999Z,15.17
2018-11-12T06:18:35.989Z,15.14
2018-11-12T06:19:35.977Z,15.17
2018-11-12T06:20:35.974Z,15.06
2018-11-12T06:21:35.966Z,15.10
2018-11-12T06:22:35.999Z,15.07
2018-11-12T06:23:35.931Z,15.11
2018-11-12T06:24:35.919Z,15.14
2018-11-12T06:25:35.926Z,15.07
2018-11-12T06:26:35.909Z,15.07
2018-11-12T06:27:35.901Z,15.16
2018-11-12T06:28:35.878Z,15.06
2018-11-12T06:29:35.876Z,15.09
2018-11-12T06:30:35.865Z,15.03
2018-11-12T06:31:35.844Z,15.11
2018-11-12T06:32:35.835Z,15.03
2018-11-12T06:33:35.820Z,15.09
2018-11-12T06:34:35.809Z,15.13
2018-11-12T06:35:35.806Z,15.03
2018-11-12T06:36:35.834Z,15.13
2018-11-12T06:37:35.778Z,15.16
2018-11-12T06:38:35.767Z,15.09
2018-11-12T06:39:35.755Z,15.16
2018-11-12T06:40:35.751Z,15.07
2018-11-12T06:41:35.730Z,15.10
2018-11-12T06:42:35.777Z,15.10
2018-11-12T06:43:35.710Z,15.10
2018-11-12T06:44:35.698Z,15.11
2018-11-12T06:45:35.696Z,15.07
2018-11-12T06:46:35.674Z,15.14
2018-11-12T06:47:35.671Z,15.13
2018-11-12T06:48:35.658Z,15.11
2018-11-12T06:49:35.645Z,15.14
2018-11-12T06:50:35.654Z,15.07
2018-11-12T06:51:35.620Z,15.13
2018-11-12T06:52:35.606Z,15.13
2018-11-12T06:53:35.691Z,15.11
2018-11-12T06:54:35.590Z,15.17
2018-11-12T06:55:35.586Z,15.16
2018-11-12T06:56:35.564Z,15.16
2018-11-12T06:57:35.553Z,15.20
2018-11-12T06:58:35.542Z,15.23
2018-11-12T06:59:35.536Z,15.25
2018-11-12T07:00:35.529Z,15.27
2018-11-12T07:01:35.509Z,15.28
2018-11-12T07:02:35.496Z,15.29
2018-11-12T07:03:35.488Z,15.23
2018-11-12T07:04:35.476Z,15.29
2018-11-12T07:05:35.505Z,15.29
2018-11-12T07:06:35.534Z,15.27
2018-11-12T07:07:35.440Z,15.28
2018-11-12T07:08:35.430Z,15.27
2018-11-12T07:09:35.424Z,15.32
2018-11-12T07:10:35.425Z,15.29
2018-11-12T07:11:35.412Z,15.35
2018-11-12T07:12:35.386Z,15.34
2018-11-12T07:13:35.373Z,15.28
2018-11-12T07:14:35.362Z,15.28
2018-11-12T07:15:35.358Z,15.31
2018-11-12T07:16:35.352Z,15.43
2018-11-12T07:17:35.337Z,15.35
2018-11-12T07:18:35.318Z,15.32
2018-11-12T07:19:35.306Z,15.36
2018-11-12T07:20:35.296Z,15.38
2018-11-12T07:21:35.297Z,15.38
2018-11-12T07:22:35.283Z,15.38
2018-11-12T07:23:35.274Z,15.35
2018-11-12T07:24:35.251Z,15.36
2018-11-12T07:25:35.240Z,15.35
2018-11-12T07:26:35.241Z,15.36
2018-11-12T07:27:35.268Z,15.32
2018-11-12T07:28:35.206Z,15.32
2018-11-12T07:29:35.230Z,15.41
2018-11-12T07:30:35.201Z,15.39
2018-11-12T07:31:35.182Z,15.43
2018-11-12T07:32:35.165Z,15.38
2018-11-12T07:33:35.155Z,15.43
2018-11-12T07:34:35.145Z,15.49
2018-11-12T07:35:35.130Z,15.51
2018-11-12T07:36:35.129Z,15.46
2018-11-12T07:37:35.114Z,15.51
2018-11-12T07:38:35.097Z,15.44
2018-11-12T07:39:35.091Z,15.50
2018-11-12T07:40:35.077Z,15.47
2018-11-12T07:41:35.078Z,15.47
2018-11-12T07:42:35.050Z,15.54
2018-11-12T07:43:35.039Z,15.59
2018-11-12T07:44:35.047Z,15.53
2018-11-12T07:45:35.028Z,15.53
2018-11-12T07:46:35.016Z,15.59
2018-11-12T07:47:34.996Z,15.59
2018-11-12T07:48:35.027Z,15.54
2018-11-12T07:49:34.973Z,15.53
2018-11-12T07:50:34.970Z,15.60
2018-11-12T07:51:34.967Z,15.57
2018-11-12T07:52:34.942Z,15.59
2018-11-12T07:53:34.928Z,15.71
2018-11-12T07:54:34.917Z,15.64
2018-11-12T07:55:34.905Z,15.56
2018-11-12T07:56:34.906Z,15.65
2018-11-12T07:57:34.885Z,15.62
2018-11-12T07:58:34.889Z,15.64
2018-11-12T07:59:34.861Z,15.59
2018-11-12T08:00:34.850Z,15.64
2018-11-12T08:01:34.849Z,15.57
2018-11-12T08:02:34.827Z,15.62
2018-11-12T08:03:34.843Z,15.72
2018-11-12T08:04:34.806Z,15.67
2018-11-12T08:05:34.792Z,15.68
2018-11-12T08:06:34.795Z,15.62
2018-11-12T08:07:34.773Z,15.65
2018-11-12T08:08:34.763Z,15.56
2018-11-12T08:09:34.795Z,15.60
2018-11-12T08:11:52.282Z,15.60
2018-11-12T08:12:42.943Z,15.59
2018-11-12T08:13:42.928Z,15.62
2018-11-12T08:14:43.027Z,15.60
2018-11-12T08:15:42.906Z,15.62
2018-11-12T08:16:42.911Z,15.67
2018-11-12T08:17:43.036Z,15.64
2018-11-12T08:18:42.872Z,15.64
2018-11-12T08:19:42.862Z,15.60
2018-11-12T08:20:42.857Z,15.65
2018-11-12T08:21:42.920Z,15.62
2018-11-12T08:22:42.832Z,15.69
2018-11-12T08:23:42.818Z,15.64
2018-11-12T08:24:42.850Z,15.65
2018-11-12T08:25:42.794Z,15.67
2018-11-12T08:26:42.799Z,15.59
2018-11-12T08:27:42.781Z,15.67
2018-11-12T08:28:42.766Z,15.69
2018-11-12T08:29:42.904Z,15.74
2018-11-12T08:30:42.739Z,15.75
2018-11-12T08:31:42.741Z,15.75
2018-11-12T08:32:42.716Z,15.74
2018-11-12T08:33:42.713Z,15.71
2018-11-12T08:34:42.700Z,15.71
2018-11-12T08:35:42.686Z,15.80
2018-11-12T08:36:42.731Z,15.76
2018-11-12T08:37:42.663Z,15.87
2018-11-12T08:38:42.652Z,15.84
2018-11-12T08:39:42.810Z,15.90
2018-11-12T08:40:42.781Z,15.90
2018-11-12T08:41:42.621Z,15.89
2018-11-12T08:42:42.619Z,15.84
2018-11-12T08:43:42.602Z,15.89
2018-11-12T08:44:42.592Z,15.89
2018-11-12T08:45:42.572Z,15.92
2018-11-12T08:46:42.561Z,15.93
2018-11-12T08:47:42.559Z,15.86
2018-11-12T08:48:42.582Z,15.83
2018-11-12T08:49:42.658Z,15.87
2018-11-12T08:50:42.519Z,16.01
2018-11-12T08:51:42.505Z,15.94
2018-11-12T08:52:42.511Z,15.94
2018-11-12T08:53:42.499Z,15.87
2018-11-12T08:54:42.764Z,15.89
2018-11-12T08:55:42.522Z,15.92
2018-11-12T08:56:42.451Z,16.01
2018-11-12T08:57:42.462Z,15.96
2018-11-12T08:58:42.427Z,16.02
2018-11-12T08:59:42.477Z,16.07
2018-11-12T09:00:42.411Z,16.00
2018-11-12T09:01:42.394Z,16.05
2018-11-12T09:02:42.401Z,16.05
2018-11-12T09:03:42.374Z,16.05
2018-11-12T09:04:42.361Z,16.12
2018-11-12T09:05:42.359Z,16.08
2018-11-12T09:06:42.339Z,16.14
2018-11-12T09:07:42.356Z,16.14
2018-11-12T09:08:42.317Z,16.12
2018-11-12T09:09:42.305Z,16.08
2018-11-12T09:10:42.297Z,16.04
2018-11-12T09:11:42.284Z,16.00
2018-11-12T09:12:42.287Z,16.05
2018-11-12T09:13:42.795Z,16.08
2018-11-12T09:14:42.253Z,16.05
2018-11-12T09:15:42.294Z,16.11
2018-11-12T09:16:42.232Z,16.04
2018-11-12T09:17:42.231Z,16.00
2018-11-12T09:18:42.217Z,16.02
2018-11-12T09:19:42.196Z,16.05
2018-11-12T09:20:42.187Z,15.94
2018-11-12T09:21:42.176Z,16.00
2018-11-12T09:22:42.173Z,15.97
2018-11-12T09:23:42.153Z,16.01
2018-11-12T09:24:42.163Z,15.84
2018-11-12T09:25:42.142Z,15.92
2018-11-12T09:26:42.119Z,15.86
2018-11-12T09:27:42.126Z,15.92
2018-11-12T09:28:42.103Z,15.92
2018-11-12T09:29:42.192Z,15.86
2018-11-12T09:30:43.408Z,15.90
2018-11-12T09:31:42.076Z,15.75
2018-11-12T09:32:42.452Z,15.83
2018-11-12T09:33:42.060Z,15.84
2018-11-12T09:34:42.035Z,15.90
2018-11-12T09:35:42.019Z,15.92
2018-11-12T09:36:42.083Z,15.94
2018-11-12T09:37:41.998Z,15.86
2018-11-12T09:38:42.078Z,15.89
2018-11-12T09:39:41.977Z,15.89
2018-11-12T09:40:41.975Z,15.93
2018-11-12T09:41:41.959Z,15.94
2018-11-12T09:42:41.954Z,15.87
2018-11-12T09:43:41.950Z,16.00
2018-11-12T09:44:41.919Z,16.02
2018-11-12T09:45:41.911Z,16.09
2018-11-12T09:46:41.896Z,16.05
2018-11-12T09:47:41.906Z,16.05
2018-11-12T09:48:41.914Z,16.07
2018-11-12T09:49:41.865Z,16.04
2018-11-12T09:50:41.853Z,16.05
2018-11-12T09:51:41.844Z,16.14
2018-11-12T09:52:41.829Z,16.09
2018-11-12T09:53:41.900Z,16.12
2018-11-12T09:54:41.879Z,16.21
2018-11-12T09:55:41.884Z,16.20
2018-11-12T09:56:41.786Z,16.12
2018-11-12T09:57:41.774Z,16.14
2018-11-12T09:58:41.799Z,16.17
2018-11-12T09:59:41.778Z,16.24
2018-11-12T10:00:42.022Z,16.21
2018-11-12T10:01:42.400Z,16.25
2018-11-12T10:02:42.964Z,16.24
2018-11-12T10:03:43.041Z,16.31
2018-11-12T10:04:43.237Z,16.27
2018-11-12T10:05:43.042Z,16.23
2018-11-12T10:06:42.979Z,16.28
2018-11-12T10:07:44.117Z,16.30
2018-11-12T10:08:43.432Z,16.35
2018-11-12T10:09:44.247Z,16.31
2018-11-12T10:10:43.648Z,16.38
2018-11-12T10:11:43.551Z,16.35
2018-11-12T10:12:44.576Z,16.35
2018-11-12T10:13:44.980Z,16.30
2018-11-12T10:14:44.007Z,16.28
2018-11-12T10:15:44.649Z,16.45
2018-11-12T10:16:44.658Z,16.38
2018-11-12T10:17:43.546Z,16.34
2018-11-12T10:18:42.551Z,16.46
2018-11-12T10:19:41.640Z,16.38
2018-11-12T10:20:41.521Z,16.39
2018-11-12T10:21:41.515Z,16.39
2018-11-12T10:22:41.500Z,16.34
2018-11-12T10:23:41.499Z,16.38
2018-11-12T10:24:41.473Z,16.31
2018-11-12T10:25:41.461Z,16.31
2018-11-12T10:26:41.499Z,16.30
2018-11-12T10:27:41.454Z,16.31
2018-11-12T10:28:41.438Z,16.34
2018-11-12T10:29:41.419Z,16.38
2018-11-12T10:30:41.406Z,16.34
2018-11-12T10:31:41.396Z,16.28
2018-11-12T10:32:41.386Z,16.34
2018-11-12T10:33:41.385Z,16.31
2018-11-12T10:34:41.363Z,16.38
2018-11-12T10:35:41.351Z,16.35
2018-11-12T10:36:41.345Z,16.34
2018-11-12T10:37:41.328Z,16.27
2018-11-12T10:38:41.333Z,16.34
2018-11-12T10:39:41.355Z,16.38
2018-11-12T10:40:41.309Z,16.38
2018-11-12T10:41:41.283Z,16.30
2018-11-12T10:42:41.274Z,16.34
2018-11-12T10:43:41.273Z,16.34
2018-11-12T10:44:41.252Z,16.34
2018-11-12T10:45:41.239Z,16.45
2018-11-12T10:46:41.240Z,16.31
2018-11-12T10:47:41.224Z,16.34
2018-11-12T10:48:41.234Z,16.38
2018-11-12T10:49:41.196Z,16.42
2018-11-12T10:50:41.183Z,16.34
2018-11-12T10:51:41.173Z,16.31
2018-11-12T10:52:41.165Z,16.30
2018-11-12T10:53:49.842Z,16.34
2018-11-12T10:54:41.235Z,16.35
2018-11-12T10:55:41.288Z,16.27
2018-11-12T10:56:41.117Z,16.33
2018-11-12T10:57:41.115Z,16.33
2018-11-12T10:58:41.186Z,16.31
2018-11-12T10:59:41.173Z,16.35
2018-11-12T11:00:41.117Z,16.31
2018-11-12T11:01:41.060Z,16.33
2018-11-12T11:02:41.061Z,16.33
2018-11-12T11:03:41.043Z,16.38
2018-11-12T11:04:41.038Z,16.33
2018-11-12T11:05:41.015Z,16.34
2018-11-12T11:06:41.008Z,16.27
2018-11-12T11:07:40.997Z,16.31
2018-11-12T11:08:40.987Z,16.24
2018-11-12T11:09:40.993Z,16.31
2018-11-12T11:10:40.962Z,16.25
2018-11-12T11:11:40.952Z,16.30
2018-11-12T11:12:40.940Z,16.23
2018-11-12T11:13:40.931Z,16.25
2018-11-12T11:14:40.938Z,16.34
2018-11-12T11:15:40.971Z,16.27
2018-11-12T11:16:40.893Z,16.30
2018-11-12T11:17:40.884Z,16.34
2018-11-12T11:18:40.870Z,16.33
2018-11-12T11:19:40.907Z,16.34
2018-11-12T11:20:40.851Z,16.34
2018-11-12T11:21:40.838Z,16.34
2018-11-12T11:22:40.827Z,16.38
2018-11-12T11:23:40.815Z,16.35
2018-11-12T11:24:40.818Z,16.28
2018-11-12T11:25:40.824Z,16.35
2018-11-12T11:26:40.926Z,16.33
2018-11-12T11:27:40.769Z,16.33
2018-11-12T11:28:40.763Z,16.34
2018-11-12T11:29:40.762Z,16.38
2018-11-12T11:30:40.746Z,16.30
2018-11-12T11:31:40.821Z,16.34
2018-11-12T11:32:40.733Z,16.35
2018-11-12T11:33:40.703Z,16.33
2018-11-12T11:34:40.705Z,16.34
2018-11-12T11:35:40.682Z,16.28
2018-11-12T11:36:40.671Z,16.33
2018-11-12T11:37:40.714Z,16.39
2018-11-12T11:38:40.649Z,16.38
2018-11-12T11:39:40.647Z,16.42
2018-11-12T11:40:40.679Z,16.34
2018-11-12T11:41:40.614Z,16.41
2018-11-12T11:42:40.621Z,16.31
2018-11-12T11:43:40.608Z,16.39
2018-11-12T11:44:40.606Z,16.23
2018-11-12T11:45:40.571Z,16.30
2018-11-12T11:46:40.560Z,16.34
2018-11-12T11:47:40.749Z,16.30
2018-11-12T11:48:40.603Z,16.31
2018-11-12T11:49:40.536Z,16.28
2018-11-12T11:50:40.565Z,16.33
2018-11-12T11:51:40.549Z,16.33
2018-11-12T11:52:40.502Z,16.30
2018-11-12T11:53:40.481Z,16.31
2018-11-12T11:54:40.513Z,16.33
2018-11-12T11:55:40.458Z,16.33
2018-11-12T11:56:40.686Z,16.35
2018-11-12T11:57:40.642Z,16.28
2018-11-12T11:58:40.426Z,16.24
2018-11-12T11:59:40.443Z,16.28
2018-11-12T12:00:40.409Z,16.25
2018-11-12T12:01:40.439Z,16.25
2018-11-12T12:02:40.408Z,16.34
2018-11-12T12:03:40.370Z,16.27
2018-11-12T12:04:40.370Z,16.31
2018-11-12T12:05:40.352Z,16.27
2018-11-12T12:06:40.345Z,16.21
2018-11-12T12:07:40.327Z,16.23
2018-11-12T12:08:40.377Z,16.15
2018-11-12T12:09:40.316Z,16.21
2018-11-12T12:10:40.303Z,16.24
2018-11-12T12:11:40.290Z,16.25
2018-11-12T12:12:40.289Z,16.25
2018-11-12T12:13:40.259Z,16.31
2018-11-12T12:14:40.248Z,16.24
2018-11-12T12:15:40.246Z,16.21
2018-11-12T12:16:40.226Z,16.24
2018-11-12T12:17:40.262Z,16.23
2018-11-12T12:18:40.216Z,16.33
2018-11-12T12:19:40.191Z,16.17
2018-11-12T12:20:40.191Z,16.20
2018-11-12T12:21:40.169Z,16.24
2018-11-12T12:22:40.163Z,16.15
2018-11-12T12:23:40.148Z,16.20
2018-11-12T12:24:40.273Z,16.15
2018-11-12T12:25:40.225Z,16.17
2018-11-12T12:26:40.113Z,16.21
2018-11-12T12:27:40.107Z,16.21
2018-11-12T12:28:40.100Z,16.25
2018-11-12T12:29:40.083Z,16.25
2018-11-12T12:30:40.083Z,16.23
2018-11-12T12:31:40.078Z,16.12
2018-11-12T12:32:40.067Z,16.15
2018-11-12T12:33:40.035Z,16.25
2018-11-12T12:34:40.046Z,16.21
2018-11-12T12:35:40.066Z,16.24
2018-11-12T12:36:40.061Z,16.15
2018-11-12T12:37:40.008Z,16.21
2018-11-12T12:38:39.989Z,16.33
2018-11-12T12:39:39.970Z,16.27
2018-11-12T12:40:39.982Z,16.30
2018-11-12T12:41:39.950Z,16.24
2018-11-12T12:42:39.935Z,16.25
2018-11-12T12:43:39.925Z,16.34
2018-11-12T12:44:40.007Z,16.28
2018-11-12T12:45:40.028Z,16.27
2018-11-12T12:46:39.893Z,16.30
2018-11-12T12:47:39.879Z,16.31
2018-11-12T12:48:39.868Z,16.25
2018-11-12T12:49:39.984Z,16.27
2018-11-12T12:50:39.860Z,16.31
2018-11-12T12:51:39.944Z,16.25
2018-11-12T12:52:39.825Z,16.30
2018-11-12T12:53:39.819Z,16.30